sensor_id;sensor_type;location;lat;lon;timestamp;P1;durP1;ratioP1;P2;durP2;ratioP2
3916;SDS011;1973;50.518;7.318;2022-11-15T00:00:30;13.43;;;10.90;;
3916;SDS011;1973;50.518;7.318;2022-11-15T00:02:56;13.63;;;11.13;;
3916;SDS011;1973;50.518;7.318;2022-11-15T00:05:23;14.90;;;11.57;;
3916;SDS011;1973;50.518;7.318;2022-11-15T00:07:49;13.90;;;10.40;;
3916;SDS011;1973;50.518;7.318;2022-11-15T00:10:21;13.40;;;11.67;;
3916;SDS011;1973;50.518;7.318;2022-11-15T00:12:47;12.97;;;10.10;;
3916;SDS011;1973;50.518;7.318;2022-11-15T00:15:14;15.00;;;11.57;;
3916;SDS011;1973;50.518;7.318;2022-11-15T00:17:40;11.97;;;10.20;;
3916;SDS011;1973;50.518;7.318;2022-11-15T00:20:07;14.30;;;11.60;;
3916;SDS011;1973;50.518;7.318;2022-11-15T00:22:34;14.17;;;10.10;;
3916;SDS011;1973;50.518;7.318;2022-11-15T00:25:00;14.10;;;11.13;;
3916;SDS011;1973;50.518;7.318;2022-11-15T00:27:27;12.87;;;10.40;;
3916;SDS011;1973;50.518;7.318;2022-11-15T00:29:53;12.93;;;9.87;;
3916;SDS011;1973;50.518;7.318;2022-11-15T00:32:20;11.20;;;10.00;;
3916;SDS011;1973;50.518;7.318;2022-11-15T00:34:46;13.57;;;10.43;;
3916;SDS011;1973;50.518;7.318;2022-11-15T00:37:12;11.77;;;10.63;;
3916;SDS011;1973;50.518;7.318;2022-11-15T00:39:39;11.70;;;10.47;;
3916;SDS011;1973;50.518;7.318;2022-11-15T00:42:05;11.80;;;10.60;;
3916;SDS011;1973;50.518;7.318;2022-11-15T00:44:32;12.07;;;10.50;;
3916;SDS011;1973;50.518;7.318;2022-11-15T00:46:58;13.63;;;10.00;;
3916;SDS011;1973;50.518;7.318;2022-11-15T00:49:25;11.43;;;10.00;;
3916;SDS011;1973;50.518;7.318;2022-11-15T00:51:51;11.13;;;9.40;;
3916;SDS011;1973;50.518;7.318;2022-11-15T00:54:17;11.03;;;9.87;;
3916;SDS011;1973;50.518;7.318;2022-11-15T00:56:44;11.53;;;9.77;;
3916;SDS011;1973;50.518;7.318;2022-11-15T00:59:10;12.60;;;9.27;;
3916;SDS011;1973;50.518;7.318;2022-11-15T01:01:37;11.17;;;8.63;;
3916;SDS011;1973;50.518;7.318;2022-11-15T01:04:03;12.13;;;10.90;;
3916;SDS011;1973;50.518;7.318;2022-11-15T01:06:30;10.40;;;8.97;;
3916;SDS011;1973;50.518;7.318;2022-11-15T01:08:56;12.33;;;9.73;;
3916;SDS011;1973;50.518;7.318;2022-11-15T01:11:22;11.23;;;9.43;;
3916;SDS011;1973;50.518;7.318;2022-11-15T01:13:49;10.63;;;9.53;;
3916;SDS011;1973;50.518;7.318;2022-11-15T01:16:16;15.50;;;10.30;;
3916;SDS011;1973;50.518;7.318;2022-11-15T01:18:44;12.90;;;10.07;;
3916;SDS011;1973;50.518;7.318;2022-11-15T01:21:16;13.70;;;10.20;;
3916;SDS011;1973;50.518;7.318;2022-11-15T01:23:44;14.93;;;11.03;;
3916;SDS011;1973;50.518;7.318;2022-11-15T01:26:12;10.97;;;9.10;;
3916;SDS011;1973;50.518;7.318;2022-11-15T01:28:40;10.87;;;9.20;;
3916;SDS011;1973;50.518;7.318;2022-11-15T01:31:18;12.97;;;9.77;;
3916;SDS011;1973;50.518;7.318;2022-11-15T01:33:46;13.70;;;10.30;;
3916;SDS011;1973;50.518;7.318;2022-11-15T01:36:15;14.30;;;10.43;;
3916;SDS011;1973;50.518;7.318;2022-11-15T01:38:43;12.13;;;9.83;;
3916;SDS011;1973;50.518;7.318;2022-11-15T01:41:16;11.93;;;9.40;;
3916;SDS011;1973;50.518;7.318;2022-11-15T01:43:46;13.13;;;9.70;;
3916;SDS011;1973;50.518;7.318;2022-11-15T01:48:47;9.87;;;8.87;;
3916;SDS011;1973;50.518;7.318;2022-11-15T01:51:17;12.40;;;8.40;;
3916;SDS011;1973;50.518;7.318;2022-11-15T01:53:47;11.13;;;8.80;;
3916;SDS011;1973;50.518;7.318;2022-11-15T01:56:18;9.50;;;8.50;;
3916;SDS011;1973;50.518;7.318;2022-11-15T01:58:49;9.30;;;8.40;;
3916;SDS011;1973;50.518;7.318;2022-11-15T02:03:56;10.53;;;9.47;;
3916;SDS011;1973;50.518;7.318;2022-11-15T02:06:25;10.57;;;9.23;;
3916;SDS011;1973;50.518;7.318;2022-11-15T02:08:52;10.50;;;9.33;;
3916;SDS011;1973;50.518;7.318;2022-11-15T02:11:20;10.50;;;9.10;;
3916;SDS011;1973;50.518;7.318;2022-11-15T02:13:46;12.50;;;10.00;;
3916;SDS011;1973;50.518;7.318;2022-11-15T02:16:17;11.80;;;9.10;;
3916;SDS011;1973;50.518;7.318;2022-11-15T02:19:00;10.63;;;9.60;;
3916;SDS011;1973;50.518;7.318;2022-11-15T02:21:43;11.17;;;9.40;;
3916;SDS011;1973;50.518;7.318;2022-11-15T02:24:16;10.47;;;9.17;;
3916;SDS011;1973;50.518;7.318;2022-11-15T02:27:03;11.97;;;9.57;;
3916;SDS011;1973;50.518;7.318;2022-11-15T02:32:44;9.50;;;8.50;;
3916;SDS011;1973;50.518;7.318;2022-11-15T02:38:34;9.63;;;8.57;;
3916;SDS011;1973;50.518;7.318;2022-11-15T02:41:20;10.63;;;9.03;;
3916;SDS011;1973;50.518;7.318;2022-11-15T02:43:56;9.90;;;8.90;;
3916;SDS011;1973;50.518;7.318;2022-11-15T02:46:41;11.50;;;8.70;;
3916;SDS011;1973;50.518;7.318;2022-11-15T02:49:31;11.40;;;9.07;;
3916;SDS011;1973;50.518;7.318;2022-11-15T02:52:00;10.27;;;8.83;;
3916;SDS011;1973;50.518;7.318;2022-11-15T02:54:29;9.17;;;8.20;;
3916;SDS011;1973;50.518;7.318;2022-11-15T03:00:11;9.10;;;8.20;;
3916;SDS011;1973;50.518;7.318;2022-11-15T03:05:14;12.60;;;10.63;;
3916;SDS011;1973;50.518;7.318;2022-11-15T03:07:54;11.03;;;9.87;;
3916;SDS011;1973;50.518;7.318;2022-11-15T03:11:14;10.77;;;9.63;;
3916;SDS011;1973;50.518;7.318;2022-11-15T03:13:36;9.57;;;8.60;;
3916;SDS011;1973;50.518;7.318;2022-11-15T03:16:27;11.57;;;9.53;;
3916;SDS011;1973;50.518;7.318;2022-11-15T03:19:08;12.53;;;9.03;;
3916;SDS011;1973;50.518;7.318;2022-11-15T03:21:40;10.07;;;8.87;;
3916;SDS011;1973;50.518;7.318;2022-11-15T03:24:07;9.47;;;8.37;;
3916;SDS011;1973;50.518;7.318;2022-11-15T03:26:35;11.23;;;8.23;;
3916;SDS011;1973;50.518;7.318;2022-11-15T03:29:09;9.67;;;8.70;;
3916;SDS011;1973;50.518;7.318;2022-11-15T03:31:45;10.77;;;8.37;;
3916;SDS011;1973;50.518;7.318;2022-11-15T03:36:58;10.07;;;9.07;;
3916;SDS011;1973;50.518;7.318;2022-11-15T03:39:24;10.13;;;7.80;;
3916;SDS011;1973;50.518;7.318;2022-11-15T03:47:20;9.60;;;8.60;;
3916;SDS011;1973;50.518;7.318;2022-11-15T03:49:52;9.57;;;8.57;;
3916;SDS011;1973;50.518;7.318;2022-11-15T03:52:24;9.00;;;8.10;;
3916;SDS011;1973;50.518;7.318;2022-11-15T03:54:52;8.47;;;7.10;;
3916;SDS011;1973;50.518;7.318;2022-11-15T03:57:20;8.80;;;7.80;;
3916;SDS011;1973;50.518;7.318;2022-11-15T03:59:47;9.30;;;8.40;;
3916;SDS011;1973;50.518;7.318;2022-11-15T04:02:14;8.70;;;7.80;;
3916;SDS011;1973;50.518;7.318;2022-11-15T04:04:40;7.80;;;7.10;;
3916;SDS011;1973;50.518;7.318;2022-11-15T04:07:06;8.17;;;7.37;;
3916;SDS011;1973;50.518;7.318;2022-11-15T04:09:33;7.30;;;6.60;;
3916;SDS011;1973;50.518;7.318;2022-11-15T04:12:20;6.60;;;5.37;;
3916;SDS011;1973;50.518;7.318;2022-11-15T04:15:04;5.00;;;4.50;;
3916;SDS011;1973;50.518;7.318;2022-11-15T04:17:35;5.43;;;4.93;;
3916;SDS011;1973;50.518;7.318;2022-11-15T04:20:10;6.10;;;5.47;;
3916;SDS011;1973;50.518;7.318;2022-11-15T04:22:59;6.60;;;5.33;;
3916;SDS011;1973;50.518;7.318;2022-11-15T04:25:45;9.57;;;5.50;;
3916;SDS011;1973;50.518;7.318;2022-11-15T04:28:13;6.80;;;4.90;;
3916;SDS011;1973;50.518;7.318;2022-11-15T04:30:39;6.30;;;5.70;;
3916;SDS011;1973;50.518;7.318;2022-11-15T04:33:06;5.40;;;4.90;;
3916;SDS011;1973;50.518;7.318;2022-11-15T04:35:32;5.70;;;5.20;;
3916;SDS011;1973;50.518;7.318;2022-11-15T04:37:59;6.17;;;5.33;;
3916;SDS011;1973;50.518;7.318;2022-11-15T04:40:27;5.97;;;5.30;;
3916;SDS011;1973;50.518;7.318;2022-11-15T04:42:53;9.10;;;4.80;;
3916;SDS011;1973;50.518;7.318;2022-11-15T04:45:27;5.30;;;4.80;;
3916;SDS011;1973;50.518;7.318;2022-11-15T04:47:53;8.03;;;5.30;;
3916;SDS011;1973;50.518;7.318;2022-11-15T04:50:20;6.70;;;5.20;;
3916;SDS011;1973;50.518;7.318;2022-11-15T04:52:50;5.70;;;5.20;;
3916;SDS011;1973;50.518;7.318;2022-11-15T04:55:18;5.70;;;5.07;;
3916;SDS011;1973;50.518;7.318;2022-11-15T04:57:45;5.63;;;4.70;;
3916;SDS011;1973;50.518;7.318;2022-11-15T05:00:12;6.90;;;5.43;;
3916;SDS011;1973;50.518;7.318;2022-11-15T05:02:40;5.27;;;4.77;;
3916;SDS011;1973;50.518;7.318;2022-11-15T05:05:25;6.23;;;4.83;;
3916;SDS011;1973;50.518;7.318;2022-11-15T05:07:52;6.70;;;6.10;;
3916;SDS011;1973;50.518;7.318;2022-11-15T05:10:18;5.80;;;5.20;;
3916;SDS011;1973;50.518;7.318;2022-11-15T05:12:45;5.40;;;4.90;;
3916;SDS011;1973;50.518;7.318;2022-11-15T05:15:12;6.87;;;4.70;;
3916;SDS011;1973;50.518;7.318;2022-11-15T05:17:39;5.57;;;4.67;;
3916;SDS011;1973;50.518;7.318;2022-11-15T05:20:06;4.50;;;4.10;;
3916;SDS011;1973;50.518;7.318;2022-11-15T05:22:32;6.80;;;4.93;;
3916;SDS011;1973;50.518;7.318;2022-11-15T05:24:59;6.10;;;4.40;;
3916;SDS011;1973;50.518;7.318;2022-11-15T05:27:25;5.93;;;5.10;;
3916;SDS011;1973;50.518;7.318;2022-11-15T05:29:52;5.00;;;4.07;;
3916;SDS011;1973;50.518;7.318;2022-11-15T05:32:18;5.90;;;4.97;;
3916;SDS011;1973;50.518;7.318;2022-11-15T05:34:45;5.00;;;4.57;;
3916;SDS011;1973;50.518;7.318;2022-11-15T05:37:12;5.00;;;4.50;;
3916;SDS011;1973;50.518;7.318;2022-11-15T05:39:40;5.10;;;4.07;;
3916;SDS011;1973;50.518;7.318;2022-11-15T05:44:32;4.87;;;3.70;;
3916;SDS011;1973;50.518;7.318;2022-11-15T05:47:02;6.53;;;3.57;;
3916;SDS011;1973;50.518;7.318;2022-11-15T05:49:31;3.97;;;3.57;;
3916;SDS011;1973;50.518;7.318;2022-11-15T05:52:03;4.23;;;3.80;;
3916;SDS011;1973;50.518;7.318;2022-11-15T05:54:33;4.47;;;3.60;;
3916;SDS011;1973;50.518;7.318;2022-11-15T05:57:01;5.43;;;3.30;;
3916;SDS011;1973;50.518;7.318;2022-11-15T05:59:29;4.47;;;3.00;;
3916;SDS011;1973;50.518;7.318;2022-11-15T06:01:58;3.70;;;3.40;;
3916;SDS011;1973;50.518;7.318;2022-11-15T06:04:25;3.50;;;3.20;;
3916;SDS011;1973;50.518;7.318;2022-11-15T06:06:51;5.43;;;4.50;;
3916;SDS011;1973;50.518;7.318;2022-11-15T06:09:18;5.40;;;4.00;;
3916;SDS011;1973;50.518;7.318;2022-11-15T06:11:44;3.83;;;3.37;;
3916;SDS011;1973;50.518;7.318;2022-11-15T06:14:11;5.03;;;3.90;;
3916;SDS011;1973;50.518;7.318;2022-11-15T06:16:37;4.97;;;3.80;;
3916;SDS011;1973;50.518;7.318;2022-11-15T06:19:05;5.07;;;3.40;;
3916;SDS011;1973;50.518;7.318;2022-11-15T06:21:32;4.93;;;3.77;;
3916;SDS011;1973;50.518;7.318;2022-11-15T06:23:58;5.80;;;5.20;;
3916;SDS011;1973;50.518;7.318;2022-11-15T06:26:25;7.77;;;5.90;;
3916;SDS011;1973;50.518;7.318;2022-11-15T06:28:51;7.67;;;5.90;;
3916;SDS011;1973;50.518;7.318;2022-11-15T06:31:18;8.17;;;6.37;;
3916;SDS011;1973;50.518;7.318;2022-11-15T06:33:44;7.50;;;6.10;;
3916;SDS011;1973;50.518;7.318;2022-11-15T06:36:11;5.00;;;4.13;;
3916;SDS011;1973;50.518;7.318;2022-11-15T06:38:43;5.63;;;5.03;;
3916;SDS011;1973;50.518;7.318;2022-11-15T06:41:11;6.27;;;4.37;;
3916;SDS011;1973;50.518;7.318;2022-11-15T06:43:39;4.00;;;3.60;;
3916;SDS011;1973;50.518;7.318;2022-11-15T06:46:06;3.67;;;3.20;;
3916;SDS011;1973;50.518;7.318;2022-11-15T06:48:33;6.53;;;3.50;;
3916;SDS011;1973;50.518;7.318;2022-11-15T06:51:00;4.77;;;4.00;;
3916;SDS011;1973;50.518;7.318;2022-11-15T06:53:29;5.17;;;3.17;;
3916;SDS011;1973;50.518;7.318;2022-11-15T06:56:00;5.60;;;3.80;;
3916;SDS011;1973;50.518;7.318;2022-11-15T06:58:28;4.30;;;3.30;;
3916;SDS011;1973;50.518;7.318;2022-11-15T07:00:58;4.23;;;3.57;;
3916;SDS011;1973;50.518;7.318;2022-11-15T07:03:26;5.20;;;3.60;;
3916;SDS011;1973;50.518;7.318;2022-11-15T07:05:53;6.07;;;3.60;;
3916;SDS011;1973;50.518;7.318;2022-11-15T07:08:21;4.40;;;4.00;;
3916;SDS011;1973;50.518;7.318;2022-11-15T07:10:48;3.47;;;3.17;;
3916;SDS011;1973;50.518;7.318;2022-11-15T07:13:15;4.30;;;3.90;;
3916;SDS011;1973;50.518;7.318;2022-11-15T07:15:41;5.70;;;4.00;;
3916;SDS011;1973;50.518;7.318;2022-11-15T07:18:08;4.23;;;3.70;;
3916;SDS011;1973;50.518;7.318;2022-11-15T07:20:34;5.40;;;4.30;;
3916;SDS011;1973;50.518;7.318;2022-11-15T07:23:01;4.73;;;4.20;;
3916;SDS011;1973;50.518;7.318;2022-11-15T07:25:29;4.20;;;3.40;;
3916;SDS011;1973;50.518;7.318;2022-11-15T07:27:57;6.53;;;4.40;;
3916;SDS011;1973;50.518;7.318;2022-11-15T07:30:24;4.40;;;3.93;;
3916;SDS011;1973;50.518;7.318;2022-11-15T07:32:55;5.43;;;3.80;;
3916;SDS011;1973;50.518;7.318;2022-11-15T07:35:22;4.70;;;4.30;;
3916;SDS011;1973;50.518;7.318;2022-11-15T07:38:02;5.47;;;4.00;;
3916;SDS011;1973;50.518;7.318;2022-11-15T07:40:30;5.17;;;4.40;;
3916;SDS011;1973;50.518;7.318;2022-11-15T07:45:28;5.53;;;4.90;;
3916;SDS011;1973;50.518;7.318;2022-11-15T07:47:54;5.57;;;4.37;;
3916;SDS011;1973;50.518;7.318;2022-11-15T07:50:22;6.53;;;5.30;;
3916;SDS011;1973;50.518;7.318;2022-11-15T07:52:57;6.00;;;5.47;;
3916;SDS011;1973;50.518;7.318;2022-11-15T07:55:24;6.53;;;5.83;;
3916;SDS011;1973;50.518;7.318;2022-11-15T07:57:53;4.70;;;4.00;;
3916;SDS011;1973;50.518;7.318;2022-11-15T08:00:26;7.97;;;4.60;;
3916;SDS011;1973;50.518;7.318;2022-11-15T08:02:52;5.00;;;4.20;;
3916;SDS011;1973;50.518;7.318;2022-11-15T08:05:19;4.47;;;4.07;;
3916;SDS011;1973;50.518;7.318;2022-11-15T08:07:45;4.43;;;4.03;;
3916;SDS011;1973;50.518;7.318;2022-11-15T08:10:12;5.03;;;4.20;;
3916;SDS011;1973;50.518;7.318;2022-11-15T08:12:39;4.77;;;3.50;;
3916;SDS011;1973;50.518;7.318;2022-11-15T08:15:06;6.80;;;4.00;;
3916;SDS011;1973;50.518;7.318;2022-11-15T08:17:32;6.17;;;4.13;;
3916;SDS011;1973;50.518;7.318;2022-11-15T08:20:00;3.73;;;3.23;;
3916;SDS011;1973;50.518;7.318;2022-11-15T08:22:26;4.70;;;2.90;;
3916;SDS011;1973;50.518;7.318;2022-11-15T08:24:53;3.30;;;3.00;;
3916;SDS011;1973;50.518;7.318;2022-11-15T08:27:19;6.27;;;3.33;;
3916;SDS011;1973;50.518;7.318;2022-11-15T08:29:47;3.83;;;2.70;;
3916;SDS011;1973;50.518;7.318;2022-11-15T08:32:14;3.93;;;2.37;;
3916;SDS011;1973;50.518;7.318;2022-11-15T08:34:40;2.40;;;2.20;;
3916;SDS011;1973;50.518;7.318;2022-11-15T08:37:07;4.30;;;2.30;;
3916;SDS011;1973;50.518;7.318;2022-11-15T08:39:33;4.80;;;2.67;;
3916;SDS011;1973;50.518;7.318;2022-11-15T08:42:00;4.97;;;2.50;;
3916;SDS011;1973;50.518;7.318;2022-11-15T08:44:26;4.83;;;2.93;;
3916;SDS011;1973;50.518;7.318;2022-11-15T08:46:52;2.60;;;2.40;;
3916;SDS011;1973;50.518;7.318;2022-11-15T08:49:19;3.43;;;2.27;;
3916;SDS011;1973;50.518;7.318;2022-11-15T08:51:45;3.97;;;2.30;;
3916;SDS011;1973;50.518;7.318;2022-11-15T08:54:12;4.57;;;2.57;;
3916;SDS011;1973;50.518;7.318;2022-11-15T08:56:39;5.40;;;2.73;;
3916;SDS011;1973;50.518;7.318;2022-11-15T08:59:06;6.33;;;3.17;;
3916;SDS011;1973;50.518;7.318;2022-11-15T09:01:32;2.70;;;2.13;;
3916;SDS011;1973;50.518;7.318;2022-11-15T09:03:59;5.90;;;2.60;;
3916;SDS011;1973;50.518;7.318;2022-11-15T09:06:25;2.50;;;2.00;;
3916;SDS011;1973;50.518;7.318;2022-11-15T09:08:52;3.10;;;1.80;;
3916;SDS011;1973;50.518;7.318;2022-11-15T09:11:19;6.37;;;2.20;;
3916;SDS011;1973;50.518;7.318;2022-11-15T09:13:47;3.57;;;1.90;;
3916;SDS011;1973;50.518;7.318;2022-11-15T09:16:13;3.23;;;2.00;;
3916;SDS011;1973;50.518;7.318;2022-11-15T09:18:41;4.30;;;2.30;;
3916;SDS011;1973;50.518;7.318;2022-11-15T09:21:08;2.47;;;2.00;;
3916;SDS011;1973;50.518;7.318;2022-11-15T09:23:35;2.17;;;1.83;;
3916;SDS011;1973;50.518;7.318;2022-11-15T09:26:02;5.20;;;1.70;;
3916;SDS011;1973;50.518;7.318;2022-11-15T09:28:30;2.20;;;1.90;;
3916;SDS011;1973;50.518;7.318;2022-11-15T09:31:03;3.50;;;2.10;;
3916;SDS011;1973;50.518;7.318;2022-11-15T09:33:31;2.83;;;1.80;;
3916;SDS011;1973;50.518;7.318;2022-11-15T09:36:05;4.00;;;2.03;;
3916;SDS011;1973;50.518;7.318;2022-11-15T09:38:33;2.93;;;1.87;;
3916;SDS011;1973;50.518;7.318;2022-11-15T09:49:21;6.57;;;3.53;;
3916;SDS011;1973;50.518;7.318;2022-11-15T09:51:49;11.53;;;7.10;;
3916;SDS011;1973;50.518;7.318;2022-11-15T09:54:28;4.73;;;2.43;;
3916;SDS011;1973;50.518;7.318;2022-11-15T09:57:27;5.73;;;3.20;;
3916;SDS011;1973;50.518;7.318;2022-11-15T10:00:00;4.53;;;3.40;;
3916;SDS011;1973;50.518;7.318;2022-11-15T10:02:58;2.30;;;2.10;;
3916;SDS011;1973;50.518;7.318;2022-11-15T10:05:29;3.90;;;2.60;;
3916;SDS011;1973;50.518;7.318;2022-11-15T10:08:02;2.60;;;1.77;;
3916;SDS011;1973;50.518;7.318;2022-11-15T10:10:44;3.00;;;1.60;;
3916;SDS011;1973;50.518;7.318;2022-11-15T10:15:52;3.10;;;1.67;;
3916;SDS011;1973;50.518;7.318;2022-11-15T10:18:41;2.47;;;1.33;;
3916;SDS011;1973;50.518;7.318;2022-11-15T10:21:23;3.20;;;1.13;;
3916;SDS011;1973;50.518;7.318;2022-11-15T10:23:58;2.73;;;1.20;;
3916;SDS011;1973;50.518;7.318;2022-11-15T10:26:25;2.57;;;1.30;;
3916;SDS011;1973;50.518;7.318;2022-11-15T10:28:52;1.40;;;1.27;;
3916;SDS011;1973;50.518;7.318;2022-11-15T10:31:26;4.33;;;2.37;;
3916;SDS011;1973;50.518;7.318;2022-11-15T10:34:10;2.77;;;1.10;;
3916;SDS011;1973;50.518;7.318;2022-11-15T10:36:46;2.57;;;1.70;;
3916;SDS011;1973;50.518;7.318;2022-11-15T10:39:20;4.87;;;1.50;;
3916;SDS011;1973;50.518;7.318;2022-11-15T10:41:46;2.50;;;1.30;;
3916;SDS011;1973;50.518;7.318;2022-11-15T10:46:44;2.83;;;1.30;;
3916;SDS011;1973;50.518;7.318;2022-11-15T10:49:27;4.20;;;1.23;;
3916;SDS011;1973;50.518;7.318;2022-11-15T10:52:00;4.20;;;1.70;;
3916;SDS011;1973;50.518;7.318;2022-11-15T10:54:34;3.13;;;1.47;;
3916;SDS011;1973;50.518;7.318;2022-11-15T10:57:05;2.97;;;1.30;;
3916;SDS011;1973;50.518;7.318;2022-11-15T10:59:36;3.40;;;1.60;;
3916;SDS011;1973;50.518;7.318;2022-11-15T11:04:57;3.60;;;1.60;;
3916;SDS011;1973;50.518;7.318;2022-11-15T11:07:26;4.07;;;1.87;;
3916;SDS011;1973;50.518;7.318;2022-11-15T11:09:59;2.70;;;2.23;;
3916;SDS011;1973;50.518;7.318;2022-11-15T11:13:13;4.10;;;2.10;;
3916;SDS011;1973;50.518;7.318;2022-11-15T11:21:10;2.93;;;2.00;;
3916;SDS011;1973;50.518;7.318;2022-11-15T11:23:53;7.73;;;3.20;;
3916;SDS011;1973;50.518;7.318;2022-11-15T11:26:34;4.70;;;2.50;;
3916;SDS011;1973;50.518;7.318;2022-11-15T11:34:24;2.90;;;2.60;;
3916;SDS011;1973;50.518;7.318;2022-11-15T11:47:56;5.90;;;3.90;;
3916;SDS011;1973;50.518;7.318;2022-11-15T11:50:34;11.73;;;8.37;;
3916;SDS011;1973;50.518;7.318;2022-11-15T11:53:14;5.53;;;4.10;;
3916;SDS011;1973;50.518;7.318;2022-11-15T11:55:56;5.50;;;3.70;;
3916;SDS011;1973;50.518;7.318;2022-11-15T12:03:40;2.37;;;2.17;;
3916;SDS011;1973;50.518;7.318;2022-11-15T12:08:53;4.53;;;3.07;;
3916;SDS011;1973;50.518;7.318;2022-11-15T12:17:12;3.83;;;2.60;;
3916;SDS011;1973;50.518;7.318;2022-11-15T12:19:39;3.17;;;2.50;;
3916;SDS011;1973;50.518;7.318;2022-11-15T12:22:11;4.53;;;2.47;;
3916;SDS011;1973;50.518;7.318;2022-11-15T12:27:19;3.30;;;2.80;;
3916;SDS011;1973;50.518;7.318;2022-11-15T12:29:54;3.90;;;2.50;;
3916;SDS011;1973;50.518;7.318;2022-11-15T12:32:33;4.27;;;3.00;;
3916;SDS011;1973;50.518;7.318;2022-11-15T12:35:02;2.83;;;2.50;;
3916;SDS011;1973;50.518;7.318;2022-11-15T12:42:58;3.87;;;2.60;;
3916;SDS011;1973;50.518;7.318;2022-11-15T12:45:41;4.20;;;2.63;;
3916;SDS011;1973;50.518;7.318;2022-11-15T12:51:02;3.30;;;3.00;;
3916;SDS011;1973;50.518;7.318;2022-11-15T12:53:33;6.30;;;3.00;;
3916;SDS011;1973;50.518;7.318;2022-11-15T13:11:55;4.67;;;1.90;;
3916;SDS011;1973;50.518;7.318;2022-11-15T13:19:48;3.37;;;1.87;;
3916;SDS011;1973;50.518;7.318;2022-11-15T13:22:23;3.00;;;2.23;;
3916;SDS011;1973;50.518;7.318;2022-11-15T13:25:15;5.13;;;1.50;;
3916;SDS011;1973;50.518;7.318;2022-11-15T13:27:42;2.47;;;1.47;;
3916;SDS011;1973;50.518;7.318;2022-11-15T13:30:16;2.97;;;1.63;;
3916;SDS011;1973;50.518;7.318;2022-11-15T13:32:47;3.50;;;2.60;;
3916;SDS011;1973;50.518;7.318;2022-11-15T13:35:18;3.23;;;2.30;;
3916;SDS011;1973;50.518;7.318;2022-11-15T13:37:50;3.33;;;1.60;;
3916;SDS011;1973;50.518;7.318;2022-11-15T13:42:57;2.90;;;1.70;;
3916;SDS011;1973;50.518;7.318;2022-11-15T13:45:24;1.93;;;1.03;;
3916;SDS011;1973;50.518;7.318;2022-11-15T13:47:56;3.03;;;1.90;;
3916;SDS011;1973;50.518;7.318;2022-11-15T13:50:25;2.13;;;1.60;;
3916;SDS011;1973;50.518;7.318;2022-11-15T13:52:57;2.57;;;1.40;;
3916;SDS011;1973;50.518;7.318;2022-11-15T13:55:27;3.20;;;1.63;;
3916;SDS011;1973;50.518;7.318;2022-11-15T13:57:56;1.97;;;1.80;;
3916;SDS011;1973;50.518;7.318;2022-11-15T14:00:44;3.37;;;1.33;;
3916;SDS011;1973;50.518;7.318;2022-11-15T14:08:34;5.70;;;2.10;;
3916;SDS011;1973;50.518;7.318;2022-11-15T14:11:20;3.53;;;2.07;;
3916;SDS011;1973;50.518;7.318;2022-11-15T14:16:44;4.73;;;3.60;;
3916;SDS011;1973;50.518;7.318;2022-11-15T14:19:33;3.47;;;3.00;;
3916;SDS011;1973;50.518;7.318;2022-11-15T14:22:07;5.40;;;2.03;;
3916;SDS011;1973;50.518;7.318;2022-11-15T14:24:35;2.57;;;2.27;;
3916;SDS011;1973;50.518;7.318;2022-11-15T14:29:52;2.77;;;2.10;;
3916;SDS011;1973;50.518;7.318;2022-11-15T14:32:23;2.97;;;2.43;;
3916;SDS011;1973;50.518;7.318;2022-11-15T14:34:55;4.17;;;2.37;;
3916;SDS011;1973;50.518;7.318;2022-11-15T14:37:25;2.93;;;2.10;;
3916;SDS011;1973;50.518;7.318;2022-11-15T14:39:54;4.83;;;2.03;;
3916;SDS011;1973;50.518;7.318;2022-11-15T14:42:21;2.60;;;2.23;;
3916;SDS011;1973;50.518;7.318;2022-11-15T14:44:49;2.87;;;2.10;;
3916;SDS011;1973;50.518;7.318;2022-11-15T14:47:16;2.60;;;2.00;;
3916;SDS011;1973;50.518;7.318;2022-11-15T14:49:43;3.23;;;1.63;;
3916;SDS011;1973;50.518;7.318;2022-11-15T14:52:19;4.43;;;2.60;;
3916;SDS011;1973;50.518;7.318;2022-11-15T14:54:58;3.73;;;3.07;;
3916;SDS011;1973;50.518;7.318;2022-11-15T14:57:25;2.90;;;2.10;;
3916;SDS011;1973;50.518;7.318;2022-11-15T14:59:52;3.77;;;2.30;;
3916;SDS011;1973;50.518;7.318;2022-11-15T15:02:23;2.20;;;1.97;;
3916;SDS011;1973;50.518;7.318;2022-11-15T15:04:51;2.80;;;2.20;;
3916;SDS011;1973;50.518;7.318;2022-11-15T15:07:17;2.40;;;2.03;;
3916;SDS011;1973;50.518;7.318;2022-11-15T15:09:44;4.53;;;2.00;;
3916;SDS011;1973;50.518;7.318;2022-11-15T15:12:15;2.83;;;2.23;;
3916;SDS011;1973;50.518;7.318;2022-11-15T15:14:44;3.13;;;2.70;;
3916;SDS011;1973;50.518;7.318;2022-11-15T15:17:10;4.80;;;2.40;;
3916;SDS011;1973;50.518;7.318;2022-11-15T15:19:37;3.93;;;3.23;;
3916;SDS011;1973;50.518;7.318;2022-11-15T15:22:03;3.50;;;2.73;;
3916;SDS011;1973;50.518;7.318;2022-11-15T15:24:30;3.73;;;2.67;;
3916;SDS011;1973;50.518;7.318;2022-11-15T15:26:57;2.87;;;2.50;;
3916;SDS011;1973;50.518;7.318;2022-11-15T15:29:23;2.60;;;2.10;;
3916;SDS011;1973;50.518;7.318;2022-11-15T15:31:49;3.80;;;2.03;;
3916;SDS011;1973;50.518;7.318;2022-11-15T15:34:16;2.80;;;2.27;;
3916;SDS011;1973;50.518;7.318;2022-11-15T15:36:42;2.53;;;2.33;;
3916;SDS011;1973;50.518;7.318;2022-11-15T15:39:09;2.40;;;2.20;;
3916;SDS011;1973;50.518;7.318;2022-11-15T15:41:37;4.63;;;2.70;;
3916;SDS011;1973;50.518;7.318;2022-11-15T15:44:03;9.20;;;5.47;;
3916;SDS011;1973;50.518;7.318;2022-11-15T15:46:30;4.80;;;3.37;;
3916;SDS011;1973;50.518;7.318;2022-11-15T15:48:56;3.67;;;2.90;;
3916;SDS011;1973;50.518;7.318;2022-11-15T15:51:23;2.77;;;2.57;;
3916;SDS011;1973;50.518;7.318;2022-11-15T15:53:49;5.40;;;2.20;;
3916;SDS011;1973;50.518;7.318;2022-11-15T15:56:17;5.67;;;2.40;;
3916;SDS011;1973;50.518;7.318;2022-11-15T15:58:44;4.17;;;2.53;;
3916;SDS011;1973;50.518;7.318;2022-11-15T16:01:10;6.67;;;3.37;;
3916;SDS011;1973;50.518;7.318;2022-11-15T16:03:37;4.10;;;3.13;;
3916;SDS011;1973;50.518;7.318;2022-11-15T16:06:03;5.00;;;4.37;;
3916;SDS011;1973;50.518;7.318;2022-11-15T16:08:31;5.90;;;2.80;;
3916;SDS011;1973;50.518;7.318;2022-11-15T16:11:17;3.07;;;2.77;;
3916;SDS011;1973;50.518;7.318;2022-11-15T16:13:44;4.40;;;3.10;;
3916;SDS011;1973;50.518;7.318;2022-11-15T16:16:12;4.80;;;2.77;;
3916;SDS011;1973;50.518;7.318;2022-11-15T16:18:39;4.00;;;3.20;;
3916;SDS011;1973;50.518;7.318;2022-11-15T16:21:07;3.73;;;3.43;;
3916;SDS011;1973;50.518;7.318;2022-11-15T16:23:34;5.70;;;3.40;;
3916;SDS011;1973;50.518;7.318;2022-11-15T16:26:00;3.33;;;2.70;;
3916;SDS011;1973;50.518;7.318;2022-11-15T16:28:29;3.50;;;2.77;;
3916;SDS011;1973;50.518;7.318;2022-11-15T16:30:59;2.90;;;2.20;;
3916;SDS011;1973;50.518;7.318;2022-11-15T16:33:30;3.17;;;2.87;;
3916;SDS011;1973;50.518;7.318;2022-11-15T16:35:57;3.10;;;2.80;;
3916;SDS011;1973;50.518;7.318;2022-11-15T16:38:24;3.20;;;2.77;;
3916;SDS011;1973;50.518;7.318;2022-11-15T16:40:50;3.27;;;2.90;;
3916;SDS011;1973;50.518;7.318;2022-11-15T16:43:17;4.10;;;2.77;;
3916;SDS011;1973;50.518;7.318;2022-11-15T16:45:43;3.27;;;2.97;;
3916;SDS011;1973;50.518;7.318;2022-11-15T16:48:23;4.20;;;2.80;;
3916;SDS011;1973;50.518;7.318;2022-11-15T16:50:55;7.00;;;3.23;;
3916;SDS011;1973;50.518;7.318;2022-11-15T16:53:23;3.77;;;3.43;;
3916;SDS011;1973;50.518;7.318;2022-11-15T16:55:56;5.60;;;4.63;;
3916;SDS011;1973;50.518;7.318;2022-11-15T16:58:23;4.80;;;3.57;;
3916;SDS011;1973;50.518;7.318;2022-11-15T17:00:53;4.57;;;3.50;;
3916;SDS011;1973;50.518;7.318;2022-11-15T17:03:21;9.07;;;5.20;;
3916;SDS011;1973;50.518;7.318;2022-11-15T17:05:49;7.60;;;6.40;;
3916;SDS011;1973;50.518;7.318;2022-11-15T17:08:16;6.80;;;4.27;;
3916;SDS011;1973;50.518;7.318;2022-11-15T17:10:46;6.10;;;3.50;;
3916;SDS011;1973;50.518;7.318;2022-11-15T17:13:12;6.40;;;5.10;;
3916;SDS011;1973;50.518;7.318;2022-11-15T17:15:39;6.40;;;4.17;;
3916;SDS011;1973;50.518;7.318;2022-11-15T17:18:05;4.47;;;4.07;;
3916;SDS011;1973;50.518;7.318;2022-11-15T17:20:32;4.23;;;3.33;;
3916;SDS011;1973;50.518;7.318;2022-11-15T17:22:58;3.83;;;3.30;;
3916;SDS011;1973;50.518;7.318;2022-11-15T17:25:25;5.30;;;4.67;;
3916;SDS011;1973;50.518;7.318;2022-11-15T17:27:51;8.80;;;4.63;;
3916;SDS011;1973;50.518;7.318;2022-11-15T17:30:18;5.17;;;4.33;;
3916;SDS011;1973;50.518;7.318;2022-11-15T17:32:45;7.70;;;4.13;;
3916;SDS011;1973;50.518;7.318;2022-11-15T17:35:15;4.73;;;3.83;;
3916;SDS011;1973;50.518;7.318;2022-11-15T17:37:41;4.87;;;4.10;;